Time;durP1;ratioP1;P1;durP2;ratioP2;P2;SDS_P1;SDS_P2;PMS_P1;PMS_P2;Temp;Humidity;BMP_temperature;BMP_pressure;BME280_temperature;BME280_humidity;BME280_pressure;Samples;Min_cycle;Max_cycle;Signal;HPM_P1;HPM_P2
2023/04/02 00:00:15;;;;;;;10.37;10.07;;;8.90;99.90;;;;;;5007659;28;20276;-81
2023/04/02 00:02:49;;;;;;;10.33;10.03;;;8.90;99.90;;;;;;5009111;28;20256;-82
2023/04/02 00:05:51;;;;;;;10.50;10.20;;;8.90;99.90;;;;;;5006654;28;20234;-81
2023/04/02 00:08:37;;;;;;;10.30;10.00;;;8.90;99.90;;;;;;5007439;28;20240;-80
2023/04/02 00:11:05;;;;;;;10.47;10.17;;;9.00;99.90;;;;;;5008147;28;20217;-81
2023/04/02 00:13:36;;;;;;;10.40;10.10;;;9.00;99.90;;;;;;5007181;28;20233;-81
2023/04/02 00:16:07;;;;;;;10.57;10.27;;;9.00;99.90;;;;;;5006771;28;20313;-81
2023/04/02 00:18:42;;;;;;;10.30;10.00;;;9.00;99.90;;;;;;5006451;28;20239;-80
2023/04/02 00:21:20;;;;;;;10.40;10.10;;;9.00;99.90;;;;;;5006574;28;20279;-80
2023/04/02 00:23:48;;;;;;;10.50;10.20;;;9.00;99.90;;;;;;5005128;28;20248;-81
2023/04/02 00:26:25;;;;;;;10.57;10.27;;;9.00;99.90;;;;;;5002768;28;20327;-80
2023/04/02 00:28:53;;;;;;;10.40;10.10;;;9.00;99.90;;;;;;5001538;28;20320;-82
2023/04/02 00:31:22;;;;;;;10.40;10.10;;;8.90;99.90;;;;;;5003383;28;20292;-82
2023/04/02 00:33:50;;;;;;;10.47;10.17;;;8.90;99.90;;;;;;5003861;28;20322;-80
2023/04/02 00:36:22;;;;;;;10.37;10.07;;;8.90;99.90;;;;;;5004061;28;20250;-81
2023/04/02 00:38:49;;;;;;;10.50;10.20;;;8.80;99.90;;;;;;5003956;28;20217;-82
2023/04/02 00:41:26;;;;;;;10.60;10.30;;;8.80;99.90;;;;;;5004109;28;20288;-80
2023/04/02 00:43:56;;;;;;;10.30;10.00;;;8.90;99.90;;;;;;5004110;28;20251;-80
2023/04/02 00:46:30;;;;;;;10.50;10.20;;;8.90;99.90;;;;;;5004362;28;20236;-79
2023/04/02 00:49:04;;;;;;;10.70;10.40;;;8.90;99.90;;;;;;5003830;28;20243;-80
2023/04/02 00:51:37;;;;;;;10.50;10.20;;;8.90;99.90;;;;;;5004221;28;20356;-79
2023/04/02 00:54:14;;;;;;;10.50;10.20;;;8.90;99.90;;;;;;5003727;28;20243;-80
2023/04/02 00:56:45;;;;;;;10.50;10.20;;;8.90;99.90;;;;;;5003364;28;20292;-79
2023/04/02 00:59:25;;;;;;;10.60;10.30;;;8.90;99.90;;;;;;5003321;28;20308;-82
2023/04/02 01:01:54;;;;;;;10.50;10.20;;;8.90;99.90;;;;;;5003924;28;20237;-80
2023/04/02 01:04:33;;;;;;;10.40;10.10;;;8.90;99.90;;;;;;5003190;28;20327;-80
2023/04/02 01:07:06;;;;;;;10.60;10.30;;;8.90;99.90;;;;;;5003330;28;20243;-80
2023/04/02 01:10:04;;;;;;;10.70;10.40;;;8.90;99.90;;;;;;5003944;28;20319;-82
2023/04/02 01:12:48;;;;;;;10.50;10.20;;;8.90;99.90;;;;;;5004140;28;20231;-79
2023/04/02 01:15:21;;;;;;;10.60;10.30;;;8.90;99.90;;;;;;5004181;28;20332;-80
2023/04/02 01:18:08;;;;;;;10.53;10.23;;;8.90;99.90;;;;;;5003305;28;20233;-79
2023/04/02 01:21:41;;;;;;;10.40;10.10;;;8.90;99.90;;;;;;5003561;28;20297;-81
2023/04/02 01:24:11;;;;;;;10.57;10.27;;;8.80;99.90;;;;;;4936198;29;20338;-82
2023/04/02 01:26:54;;;;;;;10.60;10.30;;;8.80;99.90;;;;;;4994979;28;20241;-82
2023/04/02 01:29:28;;;;;;;10.80;10.50;;;8.80;99.90;;;;;;5003381;28;20236;-82
2023/04/02 01:32:00;;;;;;;10.47;10.17;;;8.80;99.90;;;;;;5002610;28;20233;-82
2023/04/02 01:34:29;;;;;;;10.60;10.30;;;8.80;99.90;;;;;;5002448;28;20225;-82
2023/04/02 01:37:21;;;;;;;10.60;10.30;;;8.80;99.90;;;;;;5002760;28;20249;-82
2023/04/02 01:40:17;;;;;;;10.67;10.37;;;8.80;99.90;;;;;;5003106;28;20236;-82
2023/04/02 01:42:55;;;;;;;10.60;10.30;;;8.80;99.90;;;;;;5003139;28;20766;-82
2023/04/02 01:45:25;;;;;;;10.47;10.17;;;8.80;99.90;;;;;;5001918;28;20316;-82
2023/04/02 01:47:53;;;;;;;10.50;10.20;;;8.80;99.90;;;;;;5002727;28;20267;-82
2023/04/02 01:50:31;;;;;;;10.50;10.20;;;8.80;99.90;;;;;;5002376;28;20272;-82
2023/04/02 01:53:05;;;;;;;10.30;10.00;;;8.80;99.90;;;;;;5002491;28;20228;-81
2023/04/02 01:55:40;;;;;;;10.40;10.10;;;8.80;99.90;;;;;;5001290;28;20237;-82
2023/04/02 01:58:10;;;;;;;10.53;10.23;;;8.80;99.90;;;;;;5001840;28;20255;-82
2023/04/02 02:00:46;;;;;;;10.57;10.27;;;8.80;99.90;;;;;;5002578;28;20229;-81
2023/04/02 02:03:15;;;;;;;10.40;10.10;;;8.80;99.90;;;;;;5001994;28;20271;-82
2023/04/02 02:05:42;;;;;;;10.57;10.27;;;8.80;99.90;;;;;;5002712;28;20268;-82
2023/04/02 02:08:30;;;;;;;10.67;10.37;;;8.80;99.90;;;;;;5002098;28;20297;-82
2023/04/02 02:10:58;;;;;;;10.40;10.10;;;8.80;99.90;;;;;;5007173;28;20332;-81
2023/04/02 02:13:26;;;;;;;10.60;10.30;;;8.80;99.90;;;;;;5007183;28;20232;-82
2023/04/02 02:15:58;;;;;;;10.30;10.00;;;8.80;99.90;;;;;;5002552;28;20233;-82
2023/04/02 02:18:26;;;;;;;10.40;10.10;;;8.80;99.90;;;;;;4999423;28;20233;-82
2023/04/02 02:20:57;;;;;;;10.40;10.10;;;8.80;99.90;;;;;;5001851;28;20237;-82
2023/04/02 02:23:24;;;;;;;10.50;10.20;;;8.80;99.90;;;;;;5001619;28;20248;-82
2023/04/02 02:25:54;;;;;;;10.50;10.20;;;8.90;99.90;;;;;;5001401;28;20265;-81
2023/04/02 02:28:26;;;;;;;10.40;10.10;;;8.80;99.90;;;;;;5002257;28;20259;-82
2023/04/02 02:31:01;;;;;;;10.40;10.10;;;8.80;99.90;;;;;;5002299;28;20274;-82
2023/04/02 02:33:34;;;;;;;10.40;10.10;;;8.80;99.90;;;;;;5002212;28;20279;-82
2023/04/02 02:36:06;;;;;;;10.37;10.07;;;8.80;99.90;;;;;;4994739;28;20252;-82
2023/04/02 02:38:48;;;;;;;10.50;10.20;;;8.80;99.90;;;;;;5001823;28;20228;-81
2023/04/02 02:41:23;;;;;;;10.23;9.93;;;8.80;99.90;;;;;;5002575;28;20236;-82
2023/04/02 02:43:59;;;;;;;10.37;10.07;;;8.80;99.90;;;;;;5001899;28;20271;-81
2023/04/02 02:46:30;;;;;;;10.53;10.23;;;8.80;99.90;;;;;;5001837;28;20231;-82
2023/04/02 02:49:00;;;;;;;10.47;10.17;;;8.80;99.90;;;;;;4994268;28;20237;-82
2023/04/02 02:51:39;;;;;;;10.20;9.90;;;8.80;99.90;;;;;;5002088;28;20264;-82
2023/04/02 02:54:08;;;;;;;10.30;10.00;;;8.80;99.90;;;;;;5001758;28;20236;-82
2023/04/02 02:56:40;;;;;;;10.10;9.80;;;8.80;99.90;;;;;;5003433;28;20296;-81
2023/04/02 02:59:10;;;;;;;10.20;9.90;;;8.80;99.90;;;;;;5002922;28;20224;-82
2023/04/02 03:01:39;;;;;;;10.00;9.70;;;8.80;99.90;;;;;;5002781;28;20244;-81
2023/04/02 03:04:07;;;;;;;9.80;9.50;;;8.70;99.90;;;;;;5002163;28;20371;-81
2023/04/02 03:06:35;;;;;;;10.20;9.90;;;8.70;99.90;;;;;;5002338;28;20261;-81
2023/04/02 03:09:13;;;;;;;10.00;9.70;;;8.60;99.90;;;;;;5005525;28;20233;-81
2023/04/02 03:11:47;;;;;;;10.20;9.90;;;8.60;99.90;;;;;;5004921;28;20287;-82
2023/04/02 03:14:23;;;;;;;9.90;9.60;;;8.60;99.90;;;;;;5006389;28;20239;-82
2023/04/02 03:17:00;;;;;;;10.00;9.70;;;8.60;99.90;;;;;;5004640;28;20235;-82
2023/04/02 03:19:35;;;;;;;10.03;9.73;;;8.50;99.90;;;;;;5004691;28;20242;-82
2023/04/02 03:22:11;;;;;;;9.90;9.60;;;8.60;99.90;;;;;;5005831;28;20264;-82
2023/04/02 03:24:50;;;;;;;9.97;9.67;;;8.60;99.90;;;;;;5004930;28;20319;-81
2023/04/02 03:27:23;;;;;;;9.90;9.60;;;8.50;99.90;;;;;;5004873;28;20236;-82
2023/04/02 03:30:22;;;;;;;10.07;9.77;;;8.50;99.90;;;;;;5004871;28;20267;-82
2023/04/02 03:32:55;;;;;;;9.90;9.60;;;8.50;99.90;;;;;;5005248;28;20228;-81
2023/04/02 03:35:32;;;;;;;9.80;9.50;;;8.50;99.90;;;;;;5004241;28;20329;-80
2023/04/02 03:38:04;;;;;;;9.80;9.50;;;8.50;99.90;;;;;;5004514;28;20296;-80
2023/04/02 03:40:38;;;;;;;9.73;9.43;;;8.40;99.90;;;;;;5005908;28;20232;-81
2023/04/02 03:43:17;;;;;;;9.97;9.67;;;8.40;99.90;;;;;;5005596;28;20231;-80
2023/04/02 03:45:50;;;;;;;9.93;9.63;;;8.40;99.90;;;;;;5003795;28;20265;-80
2023/04/02 03:48:27;;;;;;;9.80;9.50;;;8.40;99.90;;;;;;5004332;28;20312;-80
2023/04/02 03:51:03;;;;;;;9.67;9.37;;;8.40;99.90;;;;;;5005071;28;20221;-80
2023/04/02 03:53:31;;;;;;;9.80;9.50;;;8.40;99.90;;;;;;5005532;28;20291;-80
2023/04/02 03:56:01;;;;;;;9.90;9.60;;;8.40;99.90;;;;;;5004422;28;20251;-80
2023/04/02 03:58:35;;;;;;;9.83;9.53;;;8.40;99.90;;;;;;5004626;28;20253;-80
2023/04/02 04:01:12;;;;;;;10.07;9.77;;;8.40;99.90;;;;;;4984789;28;20233;-80
2023/04/02 04:03:45;;;;;;;9.90;9.60;;;8.40;99.90;;;;;;4992794;28;20240;-80
2023/04/02 04:06:21;;;;;;;9.80;9.50;;;8.40;99.90;;;;;;5004252;28;20275;-80
2023/04/02 04:08:53;;;;;;;9.80;9.50;;;8.40;99.90;;;;;;5003938;28;20221;-80
2023/04/02 04:11:29;;;;;;;9.83;9.53;;;8.40;99.90;;;;;;5004228;28;20236;-80
2023/04/02 04:14:01;;;;;;;9.73;9.43;;;8.40;99.90;;;;;;5004361;28;20244;-80
2023/04/02 04:16:34;;;;;;;9.77;9.47;;;8.50;99.90;;;;;;5004394;28;20264;-81
2023/04/02 04:19:11;;;;;;;9.70;9.40;;;8.50;99.90;;;;;;5003049;28;20237;-80
2023/04/02 04:21:38;;;;;;;9.77;9.47;;;8.40;99.90;;;;;;5004646;28;20332;-79
2023/04/02 04:24:13;;;;;;;9.90;9.60;;;8.40;99.90;;;;;;5003850;28;20335;-80
2023/04/02 04:26:48;;;;;;;10.00;9.70;;;8.40;99.90;;;;;;5008443;28;20243;-80
2023/04/02 04:29:32;;;;;;;9.83;9.53;;;8.50;99.90;;;;;;5009132;28;20236;-80
2023/04/02 04:32:16;;;;;;;9.90;9.60;;;8.50;99.90;;;;;;4985313;28;20252;-80
2023/04/02 04:34:52;;;;;;;9.70;9.40;;;8.50;99.90;;;;;;5002212;28;20240;-80
2023/04/02 04:37:25;;;;;;;9.97;9.67;;;8.50;99.90;;;;;;5003641;28;20239;-80
2023/04/02 04:39:57;;;;;;;9.90;9.60;;;8.50;99.90;;;;;;5003836;28;20224;-81
2023/04/02 04:42:31;;;;;;;9.83;9.53;;;8.60;99.90;;;;;;5007435;28;20229;-80
2023/04/02 04:45:07;;;;;;;9.70;9.40;;;8.60;99.90;;;;;;5004198;28;20237;-80
2023/04/02 04:47:39;;;;;;;9.80;9.50;;;8.60;99.90;;;;;;5003969;28;20225;-80
2023/04/02 04:50:15;;;;;;;9.90;9.60;;;8.60;99.90;;;;;;5003338;28;20251;-80
2023/04/02 04:52:44;;;;;;;10.20;9.90;;;8.60;99.90;;;;;;5005628;28;20269;-79
2023/04/02 04:55:28;;;;;;;10.17;9.87;;;8.60;99.90;;;;;;5004168;28;20247;-80
2023/04/02 04:58:01;;;;;;;10.10;9.80;;;8.50;99.90;;;;;;5001187;28;20231;-80
2023/04/02 05:00:40;;;;;;;10.20;9.90;;;8.50;99.90;;;;;;5009794;28;20217;-80
2023/04/02 05:03:17;;;;;;;10.20;9.90;;;8.50;99.90;;;;;;5010551;28;20256;-80
2023/04/02 05:05:47;;;;;;;10.00;9.70;;;8.50;99.90;;;;;;5018580;28;20252;-80
2023/04/02 05:08:19;;;;;;;9.90;9.60;;;8.50;99.90;;;;;;5020478;28;20252;-78
2023/04/02 05:10:53;;;;;;;10.20;9.90;;;8.50;99.90;;;;;;5018714;28;20221;-80
2023/04/02 05:13:28;;;;;;;10.20;9.90;;;8.40;99.90;;;;;;5017884;28;20264;-80
2023/04/02 05:16:09;;;;;;;10.20;9.90;;;8.50;99.90;;;;;;5007546;28;20241;-80
2023/04/02 05:18:41;;;;;;;10.10;9.80;;;8.50;99.90;;;;;;5017929;28;20276;-80
2023/04/02 05:21:20;;;;;;;10.00;9.70;;;8.50;99.90;;;;;;5020913;28;20209;-80
2023/04/02 05:23:52;;;;;;;10.00;9.70;;;8.50;99.90;;;;;;5020791;28;20255;-80
2023/04/02 05:26:25;;;;;;;10.20;9.90;;;8.50;99.90;;;;;;5020327;28;20228;-80
2023/04/02 05:28:59;;;;;;;9.97;9.67;;;8.50;99.90;;;;;;5020376;28;20233;-80
2023/04/02 05:31:35;;;;;;;9.83;9.53;;;8.60;99.90;;;;;;5020380;28;20220;-79
2023/04/02 05:34:04;;;;;;;9.77;9.47;;;8.50;99.90;;;;;;5020873;28;20354;-79
2023/04/02 05:36:33;;;;;;;9.77;9.47;;;8.60;99.90;;;;;;5020673;28;20236;-79
2023/04/02 05:39:02;;;;;;;9.87;9.57;;;8.60;99.90;;;;;;5020689;28;20272;-80
2023/04/02 05:41:37;;;;;;;9.87;9.57;;;8.60;99.90;;;;;;5020647;28;20220;-80
2023/04/02 05:44:11;;;;;;;9.90;9.60;;;8.60;99.90;;;;;;5020432;28;20208;-78
2023/04/02 05:46:49;;;;;;;9.87;9.57;;;8.60;99.90;;;;;;5020350;28;20231;-81
2023/04/02 05:49:26;;;;;;;9.70;9.40;;;8.60;99.90;;;;;;5019683;28;20217;-79
2023/04/02 05:52:01;;;;;;;9.87;9.57;;;8.60;99.90;;;;;;5020088;28;20225;-79
2023/04/02 05:54:38;;;;;;;9.90;9.60;;;8.60;99.90;;;;;;5017596;28;20243;-80
2023/04/02 05:57:12;;;;;;;9.60;9.30;;;8.60;99.90;;;;;;5013680;28;20231;-80
2023/04/02 05:59:45;;;;;;;10.00;9.70;;;8.60;99.90;;;;;;5020031;28;20212;-80
2023/04/02 06:02:22;;;;;;;9.70;9.40;;;8.60;99.90;;;;;;5016248;28;20217;-80
2023/04/02 06:04:57;;;;;;;9.80;9.50;;;8.70;99.90;;;;;;5020154;28;20225;-79
2023/04/02 06:07:31;;;;;;;9.80;9.50;;;8.60;99.90;;;;;;5019807;28;20232;-81
2023/04/02 06:10:06;;;;;;;9.83;9.53;;;8.60;99.90;;;;;;5010497;28;20239;-81
2023/04/02 06:12:40;;;;;;;9.70;9.40;;;8.70;99.90;;;;;;5004502;28;20230;-81
2023/04/02 06:15:14;;;;;;;9.60;9.30;;;8.70;99.90;;;;;;5003415;28;20240;-81
2023/04/02 06:17:47;;;;;;;9.60;9.30;;;8.70;99.90;;;;;;5002114;28;20240;-81
2023/04/02 06:20:17;;;;;;;9.53;9.23;;;8.70;99.90;;;;;;5002220;28;20256;-80
2023/04/02 06:22:50;;;;;;;9.73;9.43;;;8.70;99.90;;;;;;5001510;28;20284;-81
2023/04/02 06:25:25;;;;;;;9.87;9.57;;;8.70;99.90;;;;;;5001716;28;20276;-82
2023/04/02 06:27:55;;;;;;;9.70;9.40;;;8.70;99.90;;;;;;5002882;28;20237;-80
2023/04/02 06:30:28;;;;;;;9.70;9.40;;;8.70;99.90;;;;;;5002976;28;20280;-81
2023/04/02 06:32:56;;;;;;;9.80;9.50;;;8.70;99.90;;;;;;5002255;28;20283;-81
2023/04/02 06:35:26;;;;;;;9.70;9.40;;;8.70;99.90;;;;;;5001965;28;20308;-80
2023/04/02 06:37:59;;;;;;;9.80;9.50;;;8.80;99.90;;;;;;5002067;28;20271;-81
2023/04/02 06:40:40;;;;;;;9.77;9.47;;;8.80;99.90;;;;;;5004156;28;20257;-81
2023/04/02 06:43:17;;;;;;;9.88;9.57;;;8.80;99.90;;;;;;5007965;28;20387;-81
2023/04/02 06:45:50;;;;;;;9.80;9.50;;;8.90;99.90;;;;;;5002875;28;20236;-81
2023/04/02 06:48:21;;;;;;;9.73;9.43;;;8.90;99.90;;;;;;5002622;28;20324;-81
2023/04/02 06:50:55;;;;;;;9.70;9.40;;;8.90;99.90;;;;;;5001265;28;20279;-81
2023/04/02 06:53:28;;;;;;;9.77;9.47;;;9.00;99.90;;;;;;5001931;28;20272;-82
2023/04/02 06:56:04;;;;;;;9.80;9.50;;;9.00;99.90;;;;;;5002185;28;20328;-81
2023/04/02 06:58:31;;;;;;;9.63;9.33;;;8.90;99.90;;;;;;5001760;28;20299;-80
2023/04/02 07:00:59;;;;;;;9.73;9.43;;;9.00;99.90;;;;;;5001444;28;20292;-81
2023/04/02 07:03:32;;;;;;;9.60;9.30;;;8.90;99.90;;;;;;5002102;28;20213;-81
2023/04/02 07:06:03;;;;;;;9.90;9.60;;;9.00;99.90;;;;;;5002630;28;20233;-81
2023/04/02 07:08:32;;;;;;;9.80;9.50;;;9.00;99.90;;;;;;5002026;28;20248;-81
2023/04/02 07:11:00;;;;;;;10.00;9.70;;;9.00;99.90;;;;;;5001727;28;20221;-81
2023/04/02 07:13:28;;;;;;;9.90;9.60;;;9.00;99.90;;;;;;5001999;28;20241;-80
2023/04/02 07:15:56;;;;;;;9.90;9.60;;;9.00;99.90;;;;;;5001879;28;20236;-81
2023/04/02 07:18:27;;;;;;;9.50;9.20;;;9.00;99.90;;;;;;5001209;28;20246;-81
2023/04/02 07:20:55;;;;;;;9.70;9.40;;;8.90;99.90;;;;;;5001554;28;20331;-81
2023/04/02 07:23:24;;;;;;;10.00;9.70;;;8.90;99.90;;;;;;5001234;28;20244;-81
2023/04/02 07:25:55;;;;;;;10.00;9.70;;;8.70;99.90;;;;;;5002027;28;20262;-80
2023/04/02 07:28:22;;;;;;;9.83;9.53;;;8.70;99.90;;;;;;5002230;28;20236;-83
2023/04/02 07:30:51;;;;;;;10.03;9.73;;;8.70;99.90;;;;;;5002488;28;20225;-80
2023/04/02 07:33:23;;;;;;;9.93;9.63;;;8.80;99.90;;;;;;5001597;28;20249;-81
2023/04/02 07:35:52;;;;;;;10.30;10.00;;;8.80;99.90;;;;;;5001270;28;20332;-81
2023/04/02 07:38:20;;;;;;;9.77;9.47;;;8.80;99.90;;;;;;5001932;28;20244;-82
2023/04/02 07:40:49;;;;;;;9.73;9.43;;;8.80;99.90;;;;;;5002399;28;20232;-81
2023/04/02 07:43:18;;;;;;;9.83;9.53;;;8.80;99.90;;;;;;5003117;28;20221;-83
2023/04/02 07:45:48;;;;;;;9.70;9.40;;;8.70;99.90;;;;;;5003417;28;20338;-82
2023/04/02 07:48:15;;;;;;;9.83;9.53;;;8.70;99.90;;;;;;5004050;28;20225;-82
2023/04/02 07:50:45;;;;;;;9.73;9.43;;;8.70;99.90;;;;;;4990559;28;20283;-83
2023/04/02 07:53:29;;;;;;;9.73;9.43;;;8.80;99.90;;;;;;5002084;28;20271;-82
2023/04/02 07:55:57;;;;;;;9.70;9.40;;;8.80;99.90;;;;;;5009022;28;20297;-83
2023/04/02 07:58:28;;;;;;;9.70;9.40;;;8.80;99.90;;;;;;5008827;28;20233;-84
2023/04/02 08:00:56;;;;;;;9.70;9.40;;;8.80;99.90;;;;;;5007720;28;20303;-81
2023/04/02 08:03:25;;;;;;;9.33;9.03;;;8.80;99.90;;;;;;5007410;28;20224;-83
2023/04/02 08:05:55;;;;;;;9.90;9.60;;;8.80;99.90;;;;;;5006299;28;20378;-84
2023/04/02 08:08:24;;;;;;;9.60;9.30;;;8.80;99.90;;;;;;5005477;28;20252;-81
2023/04/02 08:10:54;;;;;;;9.60;9.30;;;8.70;99.90;;;;;;5005307;28;20252;-82
2023/04/02 08:13:22;;;;;;;9.80;9.50;;;8.80;99.90;;;;;;5005577;28;20217;-82
2023/04/02 08:15:54;;;;;;;9.87;9.57;;;8.80;99.90;;;;;;5004696;28;20316;-82
2023/04/02 08:18:23;;;;;;;9.70;9.40;;;8.70;99.90;;;;;;5005260;28;20252;-82
2023/04/02 08:20:51;;;;;;;9.70;9.40;;;8.50;99.90;;;;;;5004976;28;20221;-81
2023/04/02 08:23:20;;;;;;;9.67;9.37;;;8.30;99.90;;;;;;4984341;28;20241;-82
2023/04/02 08:25:50;;;;;;;9.80;9.50;;;8.40;99.90;;;;;;4983986;28;20245;-82
2023/04/02 08:28:19;;;;;;;9.43;9.13;;;8.40;99.90;;;;;;4984427;28;20313;-81
2023/04/02 08:30:48;;;;;;;9.97;9.67;;;8.40;99.90;;;;;;4984366;28;20237;-81
2023/04/02 08:33:20;;;;;;;10.00;9.70;;;8.50;99.90;;;;;;4990726;28;20245;-81
2023/04/02 08:35:48;;;;;;;10.07;9.77;;;8.50;99.90;;;;;;5004571;28;20304;-82
2023/04/02 08:38:17;;;;;;;9.97;9.67;;;8.30;99.90;;;;;;5004307;28;20233;-81
2023/04/02 08:40:48;;;;;;;10.03;9.73;;;8.30;99.90;;;;;;5004779;28;20232;-81
2023/04/02 08:43:41;;;;;;;9.90;9.60;;;8.40;99.90;;;;;;5004098;28;20357;-82
2023/04/02 08:46:20;;;;;;;9.97;9.67;;;8.30;99.90;;;;;;5001837;28;20243;-81
2023/04/02 08:48:58;;;;;;;10.00;9.70;;;8.30;99.90;;;;;;5003724;28;20240;-82
2023/04/02 08:51:29;;;;;;;9.93;9.63;;;8.30;99.90;;;;;;5004800;28;20233;-83
2023/04/02 08:54:07;;;;;;;10.00;9.70;;;8.20;99.90;;;;;;5006345;28;20308;-84
2023/04/02 08:56:43;;;;;;;10.07;9.77;;;8.30;99.90;;;;;;5008634;28;20240;-84
2023/04/02 08:59:23;;;;;;;10.20;9.90;;;8.20;99.90;;;;;;5008622;28;20232;-84
2023/04/02 09:02:00;;;;;;;10.20;9.90;;;8.20;99.90;;;;;;5005096;28;20217;-84
2023/04/02 09:04:40;;;;;;;10.20;9.90;;;8.10;99.90;;;;;;5005515;28;20221;-84
2023/04/02 09:07:15;;;;;;;10.13;9.83;;;8.00;99.90;;;;;;5005412;28;20231;-83
2023/04/02 09:09:47;;;;;;;10.30;10.00;;;8.10;99.90;;;;;;5004613;28;20264;-84
2023/04/02 09:12:21;;;;;;;10.30;10.00;;;8.00;99.90;;;;;;5004675;28;20233;-84
2023/04/02 09:15:19;;;;;;;10.37;10.07;;;8.00;99.90;;;;;;5004366;28;20295;-84
2023/04/02 09:17:50;;;;;;;10.27;9.97;;;8.00;99.90;;;;;;5003600;28;20268;-84
2023/04/02 09:20:27;;;;;;;10.30;10.00;;;8.00;99.90;;;;;;5003944;28;20319;-84
2023/04/02 09:22:58;;;;;;;10.50;10.20;;;8.10;99.90;;;;;;5003208;28;20243;-86
2023/04/02 09:25:30;;;;;;;10.17;9.87;;;8.10;99.90;;;;;;5002140;28;20247;-85
2023/04/02 09:28:06;;;;;;;10.33;10.03;;;8.10;99.90;;;;;;5003077;28;20236;-86
2023/04/02 09:31:08;;;;;;;10.10;9.80;;;8.10;99.90;;;;;;5002460;28;20285;-84
2023/04/02 09:33:48;;;;;;;10.07;9.77;;;8.10;99.90;;;;;;5000844;28;20290;-84
2023/04/02 09:36:43;;;;;;;9.90;9.60;;;8.00;99.90;;;;;;5001938;28;20237;-84
2023/04/02 09:39:24;;;;;;;9.97;9.67;;;7.80;99.90;;;;;;5002082;28;20225;-84
2023/04/02 09:41:52;;;;;;;9.90;9.60;;;7.80;99.90;;;;;;5004261;28;20232;-85
2023/04/02 09:44:23;;;;;;;10.13;9.83;;;7.80;99.90;;;;;;5003651;28;20233;-83
2023/04/02 09:47:02;;;;;;;10.03;9.73;;;7.70;99.90;;;;;;5003899;28;20240;-84
2023/04/02 09:49:33;;;;;;;9.80;9.50;;;7.80;99.90;;;;;;5004402;28;20240;-83
2023/04/02 09:52:27;;;;;;;9.90;9.60;;;7.70;99.90;;;;;;5004321;28;20233;-83
2023/04/02 09:55:23;;;;;;;10.00;9.70;;;7.80;99.90;;;;;;5004815;28;20280;-83
2023/04/02 09:57:52;;;;;;;9.97;9.67;;;7.80;99.90;;;;;;5005496;28;20225;-83
2023/04/02 10:00:25;;;;;;;9.73;9.43;;;7.80;99.90;;;;;;5005772;28;20233;-83
2023/04/02 10:03:06;;;;;;;9.63;9.33;;;7.80;99.90;;;;;;5004695;28;20268;-82
2023/04/02 10:05:38;;;;;;;9.60;9.30;;;7.70;99.90;;;;;;4999473;28;20226;-82
2023/04/02 10:08:26;;;;;;;9.80;9.50;;;7.70;99.90;;;;;;4984926;28;20236;-83
2023/04/02 10:11:03;;;;;;;9.90;9.60;;;7.60;99.90;;;;;;4986170;28;20237;-84
2023/04/02 10:13:41;;;;;;;10.10;9.80;;;7.60;99.90;;;;;;4985114;28;20354;-83
2023/04/02 10:16:12;;;;;;;10.00;9.70;;;7.50;99.90;;;;;;4984951;28;20287;-83
2023/04/02 10:18:51;;;;;;;10.10;9.80;;;7.60;99.90;;;;;;4990338;28;20217;-84
2023/04/02 10:21:27;;;;;;;10.17;9.87;;;7.70;99.90;;;;;;4988603;28;21050;-82
2023/04/02 10:23:58;;;;;;;9.97;9.67;;;7.70;99.90;;;;;;4986910;28;20241;-83
2023/04/02 10:26:56;;;;;;;10.00;9.70;;;7.70;99.90;;;;;;4987300;28;20230;-83
2023/04/02 10:30:00;;;;;;;9.97;9.67;;;8.10;99.90;;;;;;4987847;28;20313;-83
2023/04/02 10:32:36;;;;;;;9.87;9.57;;;8.60;99.90;;;;;;4987534;28;20300;-83
2023/04/02 10:35:14;;;;;;;10.10;9.80;;;8.70;99.90;;;;;;4986316;28;20248;-86
2023/04/02 10:38:37;;;;;;;10.10;9.80;;;8.70;99.90;;;;;;4989122;28;20229;-85
2023/04/02 10:41:25;;;;;;;10.00;9.70;;;8.40;99.90;;;;;;4991167;28;20289;-87
2023/04/02 10:44:28;;;;;;;10.13;9.83;;;8.10;99.90;;;;;;4990720;28;20248;-85
2023/04/02 10:47:33;;;;;;;;;;;;;;;;;;;;;
2023/04/02 10:50:19;;;;;;;9.87;9.57;;;7.70;99.90;;;;;;5010678;28;20220;-84
2023/04/02 10:52:59;;;;;;;10.23;9.93;;;7.60;99.90;;;;;;5010599;28;20252;-85
2023/04/02 10:55:38;;;;;;;10.07;9.77;;;7.60;99.90;;;;;;5011443;28;20289;-84
2023/04/02 10:58:20;;;;;;;10.00;9.70;;;7.80;99.90;;;;;;5006137;28;21029;-83
2023/04/02 11:00:51;;;;;;;10.27;9.97;;;7.90;99.90;;;;;;5011165;28;20240;-84
2023/04/02 11:03:33;;;;;;;9.90;9.60;;;8.00;99.90;;;;;;5007742;28;20235;-83
2023/04/02 11:06:08;;;;;;;9.97;9.67;;;7.90;99.90;;;;;;5006980;28;20246;-83
2023/04/02 11:08:45;;;;;;;10.10;9.80;;;7.90;99.90;;;;;;5007689;28;20256;-83
2023/04/02 11:11:15;;;;;;;10.20;9.90;;;7.80;99.90;;;;;;5018031;28;20301;-82
2023/04/02 11:13:55;;;;;;;10.00;9.70;;;7.70;99.90;;;;;;5018702;28;20236;-81
2023/04/02 11:16:23;;;;;;;9.93;9.63;;;7.70;99.90;;;;;;5016587;28;20237;-82
2023/04/02 11:19:26;;;;;;;9.93;9.63;;;7.70;99.90;;;;;;5012703;28;20241;-82
2023/04/02 11:21:56;;;;;;;10.30;10.00;;;7.70;99.90;;;;;;5008221;28;20284;-83
2023/04/02 11:24:44;;;;;;;10.10;9.80;;;7.80;99.90;;;;;;5007383;28;20291;-83
2023/04/02 11:27:28;;;;;;;9.97;9.67;;;7.70;99.90;;;;;;5007857;28;20236;-82
2023/04/02 11:30:11;;;;;;;10.07;9.77;;;7.60;99.90;;;;;;5007895;28;20252;-83
2023/04/02 11:32:50;;;;;;;10.10;9.80;;;7.60;99.90;;;;;;5010050;28;20315;-85
2023/04/02 11:35:43;;;;;;;10.20;9.90;;;7.70;99.90;;;;;;5010003;28;20260;-85
2023/04/02 11:38:51;;;;;;;9.97;9.67;;;7.70;99.90;;;;;;5010773;28;20232;-82
2023/04/02 11:42:02;;;;;;;10.10;9.80;;;7.70;99.90;;;;;;5010531;28;20221;-82
2023/04/02 11:44:31;;;;;;;10.07;9.77;;;7.60;99.90;;;;;;5012909;28;20289;-82
2023/04/02 11:47:27;;;;;;;9.77;9.47;;;7.60;99.90;;;;;;5009614;28;20283;-82
2023/04/02 11:50:09;;;;;;;10.23;9.93;;;7.60;99.90;;;;;;5012388;28;20233;-82
2023/04/02 11:52:51;;;;;;;10.20;9.90;;;7.50;99.90;;;;;;5007810;28;20237;-81
2023/04/02 11:55:25;;;;;;;10.00;9.70;;;7.50;99.90;;;;;;5007537;28;20224;-82
2023/04/02 11:58:38;;;;;;;10.00;9.70;;;7.60;99.90;;;;;;5002465;28;20266;-81
2023/04/02 12:02:07;;;;;;;10.00;9.70;;;7.60;99.90;;;;;;5001087;28;20237;-81
2023/04/02 12:05:13;;;;;;;10.27;9.97;;;7.60;99.90;;;;;;4990172;28;20236;-84
2023/04/02 12:08:08;;;;;;;10.27;9.97;;;7.60;99.90;;;;;;4994978;28;20241;-84
2023/04/02 12:10:59;;;;;;;10.13;9.83;;;7.60;99.90;;;;;;5013287;28;20245;-84
2023/04/02 12:13:53;;;;;;;10.30;10.00;;;7.50;99.90;;;;;;5010936;28;20233;-85
2023/04/02 12:16:24;;;;;;;10.10;9.80;;;7.60;99.90;;;;;;5009048;28;20236;-82
2023/04/02 12:18:54;;;;;;;10.03;9.73;;;7.50;99.90;;;;;;5008188;28;20229;-83
2023/04/02 12:21:27;;;;;;;10.10;9.80;;;7.40;99.90;;;;;;5008592;28;20232;-81
2023/04/02 12:23:58;;;;;;;10.00;9.70;;;7.40;99.90;;;;;;5008436;28;20331;-82
2023/04/02 12:26:41;;;;;;;10.10;9.80;;;7.40;99.90;;;;;;5008779;28;20256;-82
2023/04/02 12:29:26;;;;;;;10.10;9.80;;;7.40;99.90;;;;;;5010413;28;20232;-81
2023/04/02 12:31:59;;;;;;;10.17;9.87;;;7.30;99.90;;;;;;5017931;28;20289;-82
2023/04/02 12:34:31;;;;;;;10.20;9.90;;;7.30;99.90;;;;;;5020787;28;20248;-81
2023/04/02 12:37:08;;;;;;;10.27;9.97;;;7.20;99.90;;;;;;5014543;28;20272;-83
2023/04/02 12:39:38;;;;;;;10.50;10.20;;;7.20;99.90;;;;;;4994973;28;20228;-83
2023/04/02 12:42:18;;;;;;;10.30;10.00;;;7.10;99.90;;;;;;4993107;28;20229;-83
2023/04/02 12:44:49;;;;;;;10.20;9.90;;;7.10;99.90;;;;;;4990785;28;20237;-83
2023/04/02 12:47:17;;;;;;;10.33;10.03;;;7.10;99.90;;;;;;4992111;28;20245;-83
2023/04/02 12:49:46;;;;;;;10.10;9.80;;;7.10;99.90;;;;;;4989565;28;20292;-83
2023/04/02 12:52:20;;;;;;;10.33;10.03;;;7.20;99.90;;;;;;4988779;28;20230;-84
2023/04/02 12:54:52;;;;;;;10.30;10.00;;;7.20;99.90;;;;;;4989932;28;20217;-83
2023/04/02 12:57:33;;;;;;;10.50;10.20;;;7.20;99.90;;;;;;4988402;28;20325;-86
2023/04/02 13:00:05;;;;;;;10.40;10.10;;;7.20;99.90;;;;;;4993376;28;20232;-82
2023/04/02 13:02:47;;;;;;;10.20;9.90;;;7.20;99.90;;;;;;5000664;28;20253;-81
2023/04/02 13:05:35;;;;;;;10.47;10.17;;;7.20;99.90;;;;;;5014291;28;20225;-82
2023/04/02 13:08:06;;;;;;;10.23;9.93;;;7.10;99.90;;;;;;5014557;28;20288;-82
2023/04/02 13:10:34;;;;;;;9.90;9.60;;;7.10;99.90;;;;;;5019426;28;20244;-81
2023/04/02 13:13:03;;;;;;;9.90;9.60;;;7.00;99.90;;;;;;5012421;28;20217;-82
2023/04/02 13:15:33;;;;;;;10.13;9.83;;;7.10;99.90;;;;;;5015901;28;20257;-80
2023/04/02 13:18:20;;;;;;;10.50;10.20;;;7.00;99.90;;;;;;5011969;28;20217;-84
2023/04/02 13:20:57;;;;;;;10.30;10.00;;;7.00;99.90;;;;;;5016546;28;20248;-83
2023/04/02 13:23:35;;;;;;;10.30;10.00;;;7.10;99.90;;;;;;5009365;28;20227;-81
2023/04/02 13:26:23;;;;;;;9.90;9.60;;;7.10;99.90;;;;;;5009706;28;20285;-81
2023/04/02 13:29:00;;;;;;;10.10;9.80;;;7.20;99.90;;;;;;5017550;28;20225;-83
2023/04/02 13:31:30;;;;;;;10.23;9.93;;;7.20;99.90;;;;;;5003899;28;20222;-82
2023/04/02 13:34:01;;;;;;;10.20;9.90;;;7.20;99.90;;;;;;5016853;28;20236;-81
2023/04/02 13:36:29;;;;;;;10.10;9.80;;;7.20;99.90;;;;;;5017712;28;20257;-83